Time;durP1;ratioP1;P1;durP2;ratioP2;P2;SDS_P1;SDS_P2;PMS_P1;PMS_P2;Temp;Humidity;BMP_temperature;BMP_pressure;BME280_temperature;BME280_humidity;BME280_pressure;Samples;Min_cycle;Max_cycle;Signal;HPM_P1;HPM_P2
2021/01/07 00:00:59;;;;;;;20.60;9.65;;;2.90;99.80;;;;;;4949128;28;20226;-86
2021/01/07 00:03:27;;;;;;;24.55;10.20;;;2.90;99.80;;;;;;4997276;28;20231;-85
2021/01/07 00:05:54;;;;;;;22.80;9.30;;;2.90;99.80;;;;;;4982796;28;20219;-87
2021/01/07 00:08:21;;;;;;;20.83;10.38;;;2.90;99.80;;;;;;4980120;28;20728;-86
2021/01/07 00:10:48;;;;;;;24.30;9.45;;;2.80;99.80;;;;;;4975612;28;20249;-88
2021/01/07 00:13:15;;;;;;;21.35;10.32;;;2.80;99.80;;;;;;4975527;28;20818;-86
2021/01/07 00:15:42;;;;;;;22.92;9.73;;;2.80;99.80;;;;;;4963265;28;20232;-84
2021/01/07 00:18:09;;;;;;;19.80;10.15;;;2.80;99.80;;;;;;4983921;28;20236;-85
2021/01/07 00:20:37;;;;;;;25.63;9.95;;;2.80;99.80;;;;;;4978953;28;20256;-87
2021/01/07 00:23:04;;;;;;;22.95;10.65;;;2.80;99.80;;;;;;5000984;28;20237;-87
2021/01/07 00:25:31;;;;;;;21.77;9.73;;;2.80;99.80;;;;;;4962097;28;20249;-85
2021/01/07 00:27:58;;;;;;;19.85;10.00;;;2.80;99.80;;;;;;4988369;28;20229;-85
2021/01/07 00:30:25;;;;;;;20.70;10.48;;;2.80;99.80;;;;;;4990808;28;20227;-86
2021/01/07 00:32:52;;;;;;;20.70;10.20;;;2.70;99.80;;;;;;4983652;28;20602;-85
2021/01/07 00:35:19;;;;;;;23.42;10.50;;;2.70;99.80;;;;;;4988972;28;20322;-84
2021/01/07 00:37:47;;;;;;;20.05;9.60;;;2.70;99.80;;;;;;4988353;28;20234;-85
2021/01/07 00:40:14;;;;;;;22.13;10.43;;;2.70;99.80;;;;;;4984358;28;20227;-84
2021/01/07 00:42:44;;;;;;;21.35;10.27;;;2.70;99.80;;;;;;4963115;28;20325;-85
2021/01/07 00:45:11;;;;;;;24.20;9.10;;;2.70;99.80;;;;;;4982558;28;20226;-84
2021/01/07 00:47:38;;;;;;;21.00;8.90;;;2.60;99.80;;;;;;4993812;28;20732;-85
2021/01/07 00:50:06;;;;;;;17.40;8.82;;;2.60;99.80;;;;;;4986429;28;20231;-86
2021/01/07 00:52:33;;;;;;;18.45;8.95;;;2.60;99.80;;;;;;4978499;28;20233;-84
2021/01/07 00:55:01;;;;;;;15.35;7.50;;;2.60;99.80;;;;;;4975809;28;20234;-85
2021/01/07 00:57:28;;;;;;;15.90;7.93;;;2.60;99.80;;;;;;4972295;28;20281;-86
2021/01/07 00:59:55;;;;;;;16.60;7.53;;;2.60;99.80;;;;;;4964859;28;20230;-85
2021/01/07 01:02:22;;;;;;;16.92;8.00;;;2.60;99.80;;;;;;4985553;28;20739;-84
2021/01/07 01:04:49;;;;;;;16.15;8.13;;;2.50;99.80;;;;;;4970036;28;20394;-87
2021/01/07 01:07:17;;;;;;;17.55;7.88;;;2.50;99.80;;;;;;4970285;28;20270;-86
2021/01/07 01:09:44;;;;;;;16.98;8.13;;;2.50;99.80;;;;;;4971094;28;20235;-86
2021/01/07 01:12:11;;;;;;;14.18;7.13;;;2.50;99.80;;;;;;4960840;28;20254;-85
2021/01/07 01:14:39;;;;;;;17.42;7.93;;;2.50;99.80;;;;;;4951474;28;20227;-85
2021/01/07 01:17:06;;;;;;;19.67;7.30;;;2.50;99.80;;;;;;4974600;28;20234;-84
2021/01/07 01:19:33;;;;;;;14.13;6.47;;;2.50;99.80;;;;;;4970050;28;20227;-86
2021/01/07 01:22:00;;;;;;;11.90;6.47;;;2.50;99.80;;;;;;4965481;28;20963;-84
2021/01/07 01:24:27;;;;;;;13.20;6.43;;;2.50;99.80;;;;;;4969448;28;20248;-84
2021/01/07 01:26:54;;;;;;;15.02;7.60;;;2.50;99.80;;;;;;4952836;28;20224;-85
2021/01/07 01:29:23;;;;;;;14.15;7.50;;;2.50;99.80;;;;;;4974478;28;20233;-85
2021/01/07 01:31:50;;;;;;;12.55;6.60;;;2.50;99.80;;;;;;4963012;28;20238;-83
2021/01/07 01:34:18;;;;;;;11.38;6.55;;;2.50;99.80;;;;;;4964008;28;20238;-82
2021/01/07 01:36:45;;;;;;;9.93;6.75;;;2.50;99.80;;;;;;4961069;28;20239;-84
2021/01/07 01:39:14;;;;;;;13.23;6.10;;;2.50;99.80;;;;;;4979363;28;20312;-85
2021/01/07 01:41:42;;;;;;;11.00;5.72;;;2.50;99.80;;;;;;5000908;28;20588;-85
2021/01/07 01:44:09;;;;;;;10.45;5.32;;;2.50;99.80;;;;;;4982332;28;20225;-84
2021/01/07 01:46:37;;;;;;;13.85;6.15;;;2.50;99.80;;;;;;4956395;28;20612;-85
2021/01/07 01:49:06;;;;;;;13.35;6.57;;;2.40;99.80;;;;;;5001967;28;20235;-87
2021/01/07 01:51:33;;;;;;;11.07;5.63;;;2.40;99.80;;;;;;4990269;28;20226;-85
2021/01/07 01:54:01;;;;;;;11.93;6.70;;;2.40;99.80;;;;;;4980993;28;20235;-83
2021/01/07 01:56:28;;;;;;;12.18;6.90;;;2.50;99.80;;;;;;4986152;28;20227;-83
2021/01/07 01:58:58;;;;;;;14.35;6.80;;;2.50;99.80;;;;;;4977063;28;20235;-86
2021/01/07 02:01:25;;;;;;;12.88;6.97;;;2.50;99.80;;;;;;4993000;28;20221;-86
2021/01/07 02:03:53;;;;;;;10.85;6.13;;;2.40;99.80;;;;;;5010947;28;20239;-85
2021/01/07 02:06:22;;;;;;;17.35;8.13;;;2.50;99.80;;;;;;4991639;28;20727;-85
2021/01/07 02:08:51;;;;;;;14.15;7.63;;;2.40;99.80;;;;;;4990986;28;20241;-84
2021/01/07 02:11:18;;;;;;;15.98;6.90;;;2.40;99.80;;;;;;4971167;28;20641;-84
2021/01/07 02:13:47;;;;;;;20.35;8.60;;;2.40;99.80;;;;;;4986707;28;20229;-87
2021/01/07 02:16:20;;;;;;;15.07;6.72;;;2.40;99.80;;;;;;4972904;28;20277;-86
2021/01/07 02:18:47;;;;;;;15.27;7.65;;;2.40;99.80;;;;;;4992832;28;20231;-85
2021/01/07 02:21:15;;;;;;;17.85;7.95;;;2.40;99.80;;;;;;4990875;28;20231;-84
2021/01/07 02:23:49;;;;;;;13.75;7.72;;;2.40;99.80;;;;;;4993694;28;20223;-86
2021/01/07 02:26:16;;;;;;;15.73;8.07;;;2.30;99.80;;;;;;4983205;28;20294;-86
2021/01/07 02:28:43;;;;;;;13.32;7.38;;;2.30;99.80;;;;;;4980030;28;20233;-85
2021/01/07 02:31:11;;;;;;;14.85;7.03;;;2.30;99.80;;;;;;4985889;28;20233;-86
2021/01/07 02:33:38;;;;;;;17.48;7.38;;;2.30;99.80;;;;;;5023128;28;20249;-86
2021/01/07 02:36:06;;;;;;;11.70;6.40;;;2.30;99.80;;;;;;4985282;28;20445;-88
2021/01/07 02:38:34;;;;;;;12.43;6.53;;;2.30;99.80;;;;;;4978215;28;20309;-87
2021/01/07 02:41:03;;;;;;;12.73;5.90;;;2.20;99.80;;;;;;4989707;28;20240;-85
2021/01/07 02:43:30;;;;;;;10.35;5.70;;;2.20;99.80;;;;;;4991748;28;20225;-83
2021/01/07 02:45:57;;;;;;;8.85;5.50;;;2.20;99.80;;;;;;4993782;28;20221;-90
2021/01/07 02:48:23;;;;;;;10.75;5.75;;;2.20;99.80;;;;;;5002732;28;20602;-83
2021/01/07 02:50:50;;;;;;;8.80;5.50;;;2.20;99.80;;;;;;4990575;28;20241;-84
2021/01/07 02:53:17;;;;;;;10.05;5.80;;;2.20;99.80;;;;;;4985878;28;20223;-84
2021/01/07 02:55:45;;;;;;;8.52;5.60;;;2.20;99.80;;;;;;4993893;28;20233;-85
2021/01/07 02:58:27;;;;;;;12.10;5.93;;;2.20;99.80;;;;;;4972933;28;20234;-86
2021/01/07 03:00:54;;;;;;;10.63;6.10;;;2.20;99.80;;;;;;4998534;28;20764;-86
2021/01/07 03:03:21;;;;;;;14.02;6.88;;;2.20;99.80;;;;;;4996124;28;20207;-83
2021/01/07 03:05:48;;;;;;;12.55;6.60;;;2.20;99.80;;;;;;4997021;28;20673;-85
2021/01/07 03:08:15;;;;;;;20.60;7.57;;;2.10;99.80;;;;;;4997339;28;20290;-85
2021/01/07 03:10:42;;;;;;;14.27;7.57;;;2.20;99.80;;;;;;4996239;28;20314;-83
2021/01/07 03:13:10;;;;;;;21.77;7.15;;;2.10;99.80;;;;;;4997578;28;20202;-89
2021/01/07 03:15:37;;;;;;;14.32;6.80;;;2.10;99.80;;;;;;4996811;28;20573;-88
2021/01/07 03:18:04;;;;;;;14.63;7.75;;;2.10;99.80;;;;;;4965249;28;20891;-88
2021/01/07 03:20:31;;;;;;;12.57;6.55;;;2.10;99.80;;;;;;4983938;28;20234;-85
2021/01/07 03:22:58;;;;;;;14.23;7.50;;;2.10;99.80;;;;;;4980408;28;20915;-83
2021/01/07 03:25:25;;;;;;;14.60;6.97;;;2.10;99.80;;;;;;4984838;28;20315;-86
2021/01/07 03:27:52;;;;;;;15.85;7.68;;;2.10;99.80;;;;;;4980556;28;20261;-84
2021/01/07 03:30:21;;;;;;;14.77;7.38;;;2.10;99.80;;;;;;4977728;28;20235;-85
2021/01/07 03:32:48;;;;;;;14.95;7.60;;;2.10;99.80;;;;;;4982323;28;20233;-88
2021/01/07 03:35:15;;;;;;;17.17;8.63;;;2.10;99.80;;;;;;4994282;28;20703;-87
2021/01/07 03:37:42;;;;;;;15.15;7.95;;;2.10;99.80;;;;;;4985093;28;20617;-86
2021/01/07 03:40:10;;;;;;;14.02;6.82;;;2.00;99.80;;;;;;5009610;28;20379;-84
2021/01/07 03:42:38;;;;;;;15.50;7.38;;;2.00;99.80;;;;;;5013448;28;20232;-85
2021/01/07 03:45:06;;;;;;;18.20;8.63;;;2.00;99.80;;;;;;5006953;28;20233;-86
2021/01/07 03:47:34;;;;;;;15.30;7.53;;;2.00;99.80;;;;;;5002938;28;20236;-84
2021/01/07 03:50:01;;;;;;;15.10;8.52;;;2.00;99.80;;;;;;5011935;28;20226;-84
2021/01/07 03:52:28;;;;;;;17.13;7.95;;;2.00;99.80;;;;;;4988235;28;20329;-84
2021/01/07 03:54:55;;;;;;;20.35;9.00;;;2.10;99.80;;;;;;4960379;28;20240;-86
2021/01/07 03:57:22;;;;;;;17.13;8.48;;;2.10;99.80;;;;;;4978432;28;20325;-84
2021/01/07 03:59:49;;;;;;;15.95;7.88;;;2.10;99.80;;;;;;4993919;28;20240;-87
2021/01/07 04:02:16;;;;;;;16.02;8.57;;;2.10;99.80;;;;;;5000737;28;20233;-87
2021/01/07 04:04:44;;;;;;;16.05;8.85;;;2.10;99.80;;;;;;4991800;28;20234;-86
2021/01/07 04:07:11;;;;;;;16.65;9.00;;;2.20;99.80;;;;;;4992930;28;20222;-85
2021/01/07 04:09:38;;;;;;;17.23;8.20;;;2.20;99.80;;;;;;4977668;28;20230;-85
2021/01/07 04:12:06;;;;;;;18.92;8.93;;;2.20;99.80;;;;;;5002480;28;20222;-88
2021/01/07 04:14:33;;;;;;;16.30;7.65;;;2.30;99.80;;;;;;4979214;28;20257;-87
2021/01/07 04:17:01;;;;;;;19.13;8.63;;;2.30;99.80;;;;;;4990707;28;20227;-86
2021/01/07 04:19:28;;;;;;;16.65;8.35;;;2.20;99.80;;;;;;4984688;28;20294;-85
2021/01/07 04:22:00;;;;;;;16.42;8.05;;;2.20;99.80;;;;;;4965552;28;20246;-85
2021/01/07 04:24:27;;;;;;;14.00;7.72;;;2.20;99.80;;;;;;4964828;28;20677;-85
2021/01/07 04:26:54;;;;;;;18.65;9.02;;;2.20;99.80;;;;;;4968775;28;20233;-84
2021/01/07 04:29:21;;;;;;;18.77;9.10;;;2.20;99.80;;;;;;4972263;28;20234;-85
2021/01/07 04:31:48;;;;;;;17.85;8.20;;;2.20;99.80;;;;;;4986629;28;20234;-86
2021/01/07 04:34:15;;;;;;;18.20;9.93;;;2.20;99.80;;;;;;4991840;28;20272;-86
2021/01/07 04:36:42;;;;;;;15.15;8.40;;;2.20;99.80;;;;;;4992782;28;20237;-82
2021/01/07 04:39:10;;;;;;;18.42;8.50;;;2.20;99.80;;;;;;4993740;28;20231;-87
2021/01/07 04:41:37;;;;;;;19.80;9.50;;;2.20;99.80;;;;;;4981390;28;20610;-86
2021/01/07 04:44:05;;;;;;;20.40;8.98;;;2.20;99.80;;;;;;4988302;28;20478;-84
2021/01/07 04:46:33;;;;;;;16.73;8.88;;;2.20;99.80;;;;;;4967940;28;20367;-85
2021/01/07 04:49:00;;;;;;;15.75;7.97;;;2.20;99.80;;;;;;4991900;28;20258;-87
2021/01/07 04:51:27;;;;;;;18.02;8.85;;;2.20;99.80;;;;;;4982269;28;20226;-87
2021/01/07 04:53:55;;;;;;;16.50;7.68;;;2.20;99.80;;;;;;4996287;28;20256;-87
2021/01/07 04:56:23;;;;;;;19.42;8.18;;;2.10;99.80;;;;;;4970031;28;20254;-86
2021/01/07 04:58:50;;;;;;;17.10;9.10;;;2.20;99.80;;;;;;4974084;28;20236;-88
2021/01/07 05:01:17;;;;;;;17.15;9.10;;;2.20;99.80;;;;;;4988804;28;20226;-85
2021/01/07 05:03:46;;;;;;;19.10;8.23;;;2.20;99.80;;;;;;4992028;28;20291;-88
2021/01/07 05:06:13;;;;;;;20.27;9.73;;;2.20;99.80;;;;;;4977143;28;20231;-86
2021/01/07 05:08:40;;;;;;;17.98;8.32;;;2.20;99.80;;;;;;4985793;28;20249;-88
2021/01/07 05:11:09;;;;;;;20.58;9.57;;;2.20;99.80;;;;;;4990820;28;20258;-87
2021/01/07 05:13:42;;;;;;;19.70;9.75;;;2.20;99.80;;;;;;4981538;28;20234;-84
2021/01/07 05:16:20;;;;;;;20.67;10.07;;;2.20;99.80;;;;;;4990432;28;20217;-85
2021/01/07 05:18:47;;;;;;;17.58;9.25;;;2.20;99.80;;;;;;5017807;28;20241;-84
2021/01/07 05:21:20;;;;;;;25.17;9.77;;;2.20;99.80;;;;;;4993264;28;20261;-87
2021/01/07 05:23:48;;;;;;;19.05;8.55;;;2.20;99.80;;;;;;4990278;28;21039;-84
2021/01/07 05:26:17;;;;;;;19.38;8.88;;;2.20;99.80;;;;;;4979782;28;20593;-84
2021/01/07 05:28:46;;;;;;;23.33;8.73;;;2.20;99.80;;;;;;4970958;28;20235;-88
2021/01/07 05:31:18;;;;;;;15.93;8.75;;;2.10;99.80;;;;;;4976935;28;20231;-85
2021/01/07 05:33:45;;;;;;;19.10;9.02;;;2.10;99.80;;;;;;4975853;28;20241;-87
2021/01/07 05:36:20;;;;;;;18.48;9.18;;;2.10;99.80;;;;;;4982522;28;20225;-85
2021/01/07 05:38:48;;;;;;;18.45;9.27;;;2.10;99.80;;;;;;4971373;28;20235;-84
2021/01/07 05:41:16;;;;;;;15.40;8.30;;;2.10;99.80;;;;;;4989396;28;20744;-84
2021/01/07 05:43:44;;;;;;;20.00;9.07;;;2.10;99.80;;;;;;4994144;28;20385;-85
2021/01/07 05:46:13;;;;;;;20.15;9.38;;;2.10;99.80;;;;;;4990597;28;20226;-86
2021/01/07 05:48:40;;;;;;;17.67;8.77;;;2.10;99.80;;;;;;5013223;28;20245;-88
2021/01/07 05:51:08;;;;;;;15.45;8.35;;;2.20;99.80;;;;;;4994104;28;20281;-86
2021/01/07 05:53:36;;;;;;;21.05;9.65;;;2.20;99.80;;;;;;4991989;28;20231;-86
2021/01/07 05:56:04;;;;;;;22.77;9.00;;;2.20;99.80;;;;;;4963157;28;20231;-86
2021/01/07 05:58:33;;;;;;;22.27;9.32;;;2.10;99.80;;;;;;5002712;28;20334;-86
2021/01/07 06:01:04;;;;;;;19.13;9.50;;;2.10;99.80;;;;;;4984857;28;20245;-85
2021/01/07 06:03:37;;;;;;;17.40;8.32;;;2.10;99.80;;;;;;5003602;28;20233;-88
2021/01/07 06:06:05;;;;;;;18.88;8.88;;;2.10;99.80;;;;;;4984479;28;20734;-85
2021/01/07 06:08:36;;;;;;;14.93;8.25;;;2.10;99.80;;;;;;4998277;28;20256;-87
2021/01/07 06:11:05;;;;;;;21.52;9.25;;;2.10;99.80;;;;;;4998958;28;20229;-86
2021/01/07 06:13:33;;;;;;;21.15;9.30;;;2.10;99.80;;;;;;4989030;28;20236;-88
2021/01/07 06:16:00;;;;;;;20.58;8.48;;;2.20;99.80;;;;;;4987213;28;20309;-87
2021/01/07 06:18:29;;;;;;;18.95;8.88;;;2.20;99.80;;;;;;5019158;28;20230;-86
2021/01/07 06:21:03;;;;;;;21.60;9.30;;;2.20;99.80;;;;;;5002613;28;20230;-87
2021/01/07 06:23:32;;;;;;;17.35;7.57;;;2.20;99.80;;;;;;4992182;28;20237;-87
2021/01/07 06:26:18;;;;;;;20.08;9.23;;;2.20;99.80;;;;;;4980489;28;20227;-84
2021/01/07 06:28:46;;;;;;;20.42;8.50;;;2.20;99.80;;;;;;4985934;28;20229;-84
2021/01/07 06:31:16;;;;;;;22.27;8.95;;;2.20;99.80;;;;;;4984172;28;20633;-86
2021/01/07 06:33:44;;;;;;;19.05;8.52;;;2.20;99.80;;;;;;5024710;28;20247;-85
2021/01/07 06:36:13;;;;;;;20.08;8.55;;;2.20;99.80;;;;;;4992157;28;20223;-86
2021/01/07 06:38:53;;;;;;;23.30;10.35;;;2.20;99.80;;;;;;4971157;28;20235;-85
2021/01/07 06:41:21;;;;;;;17.23;8.18;;;2.30;99.80;;;;;;4992150;28;20222;-83
2021/01/07 06:43:51;;;;;;;22.52;9.65;;;2.20;99.80;;;;;;4981420;28;20305;-85
2021/01/07 06:46:38;;;;;;;18.58;8.95;;;2.20;99.80;;;;;;5000292;28;20226;-84
2021/01/07 06:49:20;;;;;;;22.92;11.00;;;2.20;99.80;;;;;;4999521;28;20584;-85
2021/01/07 06:51:55;;;;;;;22.10;9.60;;;2.20;99.80;;;;;;4994577;28;20231;-84
2021/01/07 06:54:24;;;;;;;19.92;10.75;;;2.30;99.80;;;;;;4993893;28;20227;-85
2021/01/07 06:56:54;;;;;;;15.75;9.10;;;2.20;99.80;;;;;;4991151;28;20226;-86
2021/01/07 06:59:22;;;;;;;17.27;8.93;;;2.20;99.80;;;;;;4992466;28;20234;-85
2021/01/07 07:01:51;;;;;;;19.10;9.23;;;2.20;99.80;;;;;;4991151;28;20309;-85
2021/01/07 07:04:26;;;;;;;18.70;8.60;;;2.20;99.80;;;;;;5000248;28;20246;-88
2021/01/07 07:07:19;;;;;;;23.35;9.82;;;2.20;99.80;;;;;;4994236;28;20222;-85
2021/01/07 07:09:52;;;;;;;22.73;9.02;;;2.20;99.80;;;;;;4991084;28;20229;-88
2021/01/07 07:12:30;;;;;;;16.70;8.45;;;2.20;99.80;;;;;;4984130;28;20246;-85
2021/01/07 07:14:57;;;;;;;17.30;8.90;;;2.20;99.80;;;;;;4970396;28;20218;-84
2021/01/07 07:17:25;;;;;;;18.58;9.05;;;2.20;99.80;;;;;;5009358;28;20283;-86
2021/01/07 07:19:54;;;;;;;21.10;9.20;;;2.20;99.80;;;;;;4996358;28;20284;-89
2021/01/07 07:22:22;;;;;;;18.88;9.13;;;2.20;99.80;;;;;;4992708;28;20249;-86
2021/01/07 07:24:54;;;;;;;21.58;9.63;;;2.20;99.80;;;;;;4996764;28;20231;-85
2021/01/07 07:27:42;;;;;;;20.98;10.68;;;2.20;99.80;;;;;;4996976;28;20231;-86
2021/01/07 07:30:12;;;;;;;22.35;9.35;;;2.20;99.80;;;;;;4994782;28;20653;-86
2021/01/07 07:32:44;;;;;;;19.58;9.00;;;2.10;99.80;;;;;;4989938;28;20231;-85
2021/01/07 07:35:22;;;;;;;25.58;11.20;;;2.20;99.80;;;;;;4989587;28;20315;-85
2021/01/07 07:37:50;;;;;;;26.25;11.20;;;2.10;99.80;;;;;;4989248;28;20590;-87
2021/01/07 07:40:33;;;;;;;24.85;10.80;;;2.20;99.80;;;;;;4970745;28;20338;-86
2021/01/07 07:43:00;;;;;;;26.65;11.35;;;2.20;99.80;;;;;;4995130;28;20302;-84
2021/01/07 07:45:28;;;;;;;27.13;10.85;;;2.20;99.80;;;;;;4990433;28;20221;-85
2021/01/07 07:47:56;;;;;;;22.35;10.98;;;2.30;99.80;;;;;;4988879;28;20268;-84
2021/01/07 07:50:27;;;;;;;20.17;9.98;;;2.40;99.80;;;;;;4991091;28;20727;-85
2021/01/07 07:53:04;;;;;;;21.45;9.50;;;2.40;99.80;;;;;;4990145;28;20244;-85
2021/01/07 07:55:34;;;;;;;28.73;11.10;;;2.40;99.80;;;;;;5010968;28;20616;-85
2021/01/07 07:58:08;;;;;;;26.30;12.10;;;2.40;99.80;;;;;;4980921;28;21130;-84
2021/01/07 08:00:36;;;;;;;29.48;13.77;;;2.40;99.80;;;;;;5006898;28;20223;-87
2021/01/07 08:03:03;;;;;;;22.13;10.80;;;2.40;99.80;;;;;;4994915;28;20226;-85
2021/01/07 08:05:32;;;;;;;30.33;13.27;;;2.50;99.80;;;;;;4992315;28;20318;-85
2021/01/07 08:08:00;;;;;;;29.38;13.18;;;2.50;99.80;;;;;;4991563;28;20237;-85
2021/01/07 08:10:28;;;;;;;27.35;12.32;;;2.50;99.80;;;;;;4982314;28;20233;-87
2021/01/07 08:12:55;;;;;;;25.75;10.75;;;2.60;99.80;;;;;;4986623;28;20276;-86
2021/01/07 08:15:29;;;;;;;27.45;10.80;;;2.50;99.80;;;;;;4977518;28;20274;-87
2021/01/07 08:18:13;;;;;;;25.20;11.52;;;2.50;99.80;;;;;;5000471;28;20222;-86
2021/01/07 08:20:43;;;;;;;32.22;10.90;;;2.60;99.80;;;;;;4961898;28;20230;-85
2021/01/07 08:23:10;;;;;;;25.88;10.70;;;2.50;99.80;;;;;;4967994;28;20234;-87
2021/01/07 08:25:39;;;;;;;21.70;10.60;;;2.50;99.80;;;;;;4983538;28;20329;-86
2021/01/07 08:28:15;;;;;;;25.67;10.25;;;2.50;99.80;;;;;;4981550;28;20894;-86
2021/01/07 08:30:48;;;;;;;27.65;11.23;;;2.50;99.80;;;;;;4967575;28;20334;-88
2021/01/07 08:33:17;;;;;;;23.52;10.98;;;2.60;99.80;;;;;;5000816;28;20247;-87
2021/01/07 08:35:45;;;;;;;20.98;9.80;;;2.60;99.80;;;;;;4986006;28;20631;-85
2021/01/07 08:38:24;;;;;;;30.25;11.60;;;2.50;99.80;;;;;;4988390;28;20257;-86
2021/01/07 08:40:54;;;;;;;26.25;11.35;;;2.50;99.80;;;;;;4982512;28;20698;-86
2021/01/07 08:43:21;;;;;;;24.13;10.93;;;2.50;99.80;;;;;;4979458;28;20229;-87
2021/01/07 08:45:49;;;;;;;24.98;11.40;;;2.50;99.80;;;;;;4968966;28;20234;-85
2021/01/07 08:48:22;;;;;;;29.10;12.32;;;2.50;99.80;;;;;;4998868;28;20235;-85
2021/01/07 08:50:50;;;;;;;35.25;13.80;;;2.60;99.80;;;;;;4985120;28;20223;-86
2021/01/07 08:53:18;;;;;;;21.50;10.45;;;2.60;99.80;;;;;;4987624;28;20818;-86
2021/01/07 08:55:50;;;;;;;24.38;11.50;;;2.60;99.80;;;;;;4981179;28;20247;-85
2021/01/07 08:58:22;;;;;;;22.10;11.30;;;2.60;99.80;;;;;;4971059;28;20320;-85
2021/01/07 09:00:50;;;;;;;24.33;11.18;;;2.60;99.80;;;;;;4968939;28;20318;-86
2021/01/07 09:03:18;;;;;;;22.95;9.85;;;2.60;99.80;;;;;;4997253;28;20306;-86
2021/01/07 09:05:45;;;;;;;25.80;11.00;;;2.50;99.80;;;;;;4989253;28;20285;-85
2021/01/07 09:08:14;;;;;;;25.52;11.77;;;2.50;99.80;;;;;;4988006;28;20923;-85
2021/01/07 09:10:42;;;;;;;25.63;11.27;;;2.50;99.80;;;;;;4992586;28;20241;-85
2021/01/07 09:13:17;;;;;;;26.35;10.95;;;2.50;99.80;;;;;;4980001;28;20223;-87
2021/01/07 09:15:45;;;;;;;21.35;11.15;;;2.50;99.80;;;;;;4975210;28;20300;-86
2021/01/07 09:18:13;;;;;;;26.42;11.30;;;2.60;99.80;;;;;;4991408;28;20234;-85
2021/01/07 09:20:40;;;;;;;37.55;10.85;;;2.60;99.80;;;;;;4991675;28;20225;-86
2021/01/07 09:23:10;;;;;;;23.48;10.63;;;2.70;99.80;;;;;;4977249;28;20219;-85
2021/01/07 09:25:38;;;;;;;26.30;10.10;;;2.70;99.80;;;;;;4969687;28;20620;-86
2021/01/07 09:28:06;;;;;;;23.70;10.68;;;2.70;99.80;;;;;;4993790;28;20236;-86
2021/01/07 09:30:34;;;;;;;27.88;11.23;;;2.80;99.80;;;;;;4991333;28;20236;-85
2021/01/07 09:33:03;;;;;;;22.90;10.52;;;2.70;99.80;;;;;;4995833;28;20275;-85
2021/01/07 09:35:30;;;;;;;25.75;11.95;;;2.70;99.80;;;;;;4980504;28;20713;-86
2021/01/07 09:38:00;;;;;;;25.67;10.93;;;2.80;99.80;;;;;;4986700;28;20313;-87
2021/01/07 09:40:28;;;;;;;33.38;12.20;;;2.80;99.80;;;;;;4986787;28;20254;-85
2021/01/07 09:42:55;;;;;;;26.55;10.27;;;2.80;99.80;;;;;;4984672;28;20247;-85
2021/01/07 09:45:23;;;;;;;26.13;9.65;;;2.80;99.80;;;;;;4968673;28;20311;-84
2021/01/07 09:47:50;;;;;;;23.40;10.60;;;2.80;99.80;;;;;;4982104;28;25211;-86
2021/01/07 09:50:20;;;;;;;21.95;9.82;;;2.90;99.80;;;;;;4985600;28;20223;-85
2021/01/07 09:52:47;;;;;;;23.90;11.45;;;2.90;99.80;;;;;;4990832;28;20240;-85
2021/01/07 09:55:14;;;;;;;25.80;11.55;;;3.00;99.80;;;;;;4966611;28;20226;-84
2021/01/07 09:57:46;;;;;;;26.40;11.15;;;3.00;99.80;;;;;;4985822;28;20317;-85
2021/01/07 10:00:18;;;;;;;22.70;9.18;;;3.00;99.80;;;;;;5000739;28;20267;-85
2021/01/07 10:02:45;;;;;;;24.30;10.25;;;3.00;99.80;;;;;;4999933;28;20312;-85
2021/01/07 10:05:12;;;;;;;25.75;11.35;;;3.00;99.80;;;;;;4983462;28;20374;-87
2021/01/07 10:07:40;;;;;;;23.05;9.80;;;3.00;99.80;;;;;;4988784;28;20599;-86
2021/01/07 12:11:33;;;;;;;16.25;8.25;;;3.80;99.80;;;;;;4990995;28;20273;-79
2021/01/07 12:14:11;;;;;;;19.50;9.40;;;3.90;99.80;;;;;;4961785;28;20251;-84
2021/01/07 12:16:45;;;;;;;18.45;8.88;;;4.00;99.80;;;;;;4981510;28;20233;-82
2021/01/07 12:19:32;;;;;;;21.27;8.50;;;4.00;99.80;;;;;;4984806;28;20243;-85
2021/01/07 12:22:01;;;;;;;18.08;7.45;;;4.10;99.80;;;;;;4985558;28;20235;-81
2021/01/07 12:24:31;;;;;;;17.88;9.13;;;4.20;99.80;;;;;;4985246;28;20765;-83
2021/01/07 12:26:59;;;;;;;15.43;8.50;;;4.30;99.80;;;;;;4994795;28;20238;-83
2021/01/07 12:29:27;;;;;;;17.65;8.55;;;4.30;99.80;;;;;;4961357;28;20249;-82
2021/01/07 12:31:55;;;;;;;14.30;8.40;;;4.30;99.80;;;;;;4995053;28;20225;-82
2021/01/07 12:34:27;;;;;;;19.55;9.85;;;4.30;99.80;;;;;;4995637;28;20231;-83
2021/01/07 12:37:08;;;;;;;18.50;8.68;;;4.30;99.80;;;;;;4990667;28;20238;-84
2021/01/07 12:39:37;;;;;;;15.88;8.07;;;4.30;99.80;;;;;;4990471;28;20215;-83
2021/01/07 12:42:12;;;;;;;22.05;9.50;;;4.30;99.80;;;;;;4986620;28;20269;-85
2021/01/07 12:44:42;;;;;;;20.15;8.45;;;4.30;99.80;;;;;;4986543;28;20244;-84
2021/01/07 12:47:12;;;;;;;14.80;8.57;;;4.30;99.80;;;;;;4989703;28;20305;-83
2021/01/07 12:49:42;;;;;;;16.13;7.82;;;4.30;99.80;;;;;;4987158;28;20233;-84
2021/01/07 12:52:11;;;;;;;14.85;7.18;;;4.40;99.80;;;;;;4989204;28;20235;-83
2021/01/07 12:54:39;;;;;;;16.73;8.63;;;4.50;99.80;;;;;;4967226;28;20231;-84
2021/01/07 12:57:17;;;;;;;18.52;8.25;;;4.60;99.80;;;;;;4976758;28;20921;-83
2021/01/07 12:59:55;;;;;;;15.27;7.78;;;4.60;99.80;;;;;;4974818;28;20248;-83
2021/01/07 13:02:33;;;;;;;20.58;8.85;;;4.50;99.80;;;;;;4980978;28;20255;-84
2021/01/07 13:05:08;;;;;;;16.40;8.32;;;4.50;99.80;;;;;;4956564;28;20252;-85
2021/01/07 13:07:37;;;;;;;22.55;9.50;;;4.50;99.80;;;;;;4990237;28;20243;-84
2021/01/07 13:10:07;;;;;;;19.38;9.43;;;4.50;99.80;;;;;;4991406;28;20238;-85
2021/01/07 13:12:37;;;;;;;16.60;8.13;;;4.50;99.80;;;;;;4986140;28;20226;-85
2021/01/07 13:15:06;;;;;;;17.80;7.97;;;4.50;99.80;;;;;;4984900;28;20991;-84
2021/01/07 13:17:35;;;;;;;18.95;8.63;;;4.80;99.80;;;;;;4998963;28;20243;-84
2021/01/07 13:20:03;;;;;;;20.98;8.77;;;5.40;99.80;;;;;;4990777;28;20434;-84
2021/01/07 13:22:30;;;;;;;13.57;7.80;;;5.50;99.80;;;;;;4986277;28;20231;-84
2021/01/07 13:24:59;;;;;;;16.50;8.35;;;5.60;99.80;;;;;;4966568;28;20603;-84
2021/01/07 13:27:27;;;;;;;16.90;8.82;;;5.50;99.80;;;;;;4989160;28;20257;-84
2021/01/07 13:29:56;;;;;;;16.00;8.10;;;5.40;99.80;;;;;;4978192;28;20239;-85
2021/01/07 13:32:24;;;;;;;17.17;7.88;;;5.50;99.80;;;;;;4991904;28;20226;-83
2021/01/07 13:34:52;;;;;;;17.42;8.27;;;5.60;99.80;;;;;;4991298;28;20262;-85
2021/01/07 13:37:21;;;;;;;16.73;8.77;;;5.50;99.80;;;;;;4985398;28;20239;-83
2021/01/07 13:39:51;;;;;;;12.40;6.68;;;5.30;99.80;;;;;;4967240;28;20788;-84
2021/01/07 13:42:21;;;;;;;13.55;8.25;;;4.90;99.80;;;;;;4986446;28;20229;-84
2021/01/07 13:44:50;;;;;;;21.13;9.07;;;4.70;99.80;;;;;;4976049;28;20237;-84
2021/01/07 13:47:20;;;;;;;13.63;7.25;;;4.30;99.80;;;;;;4979540;28;20308;-83
2021/01/07 13:49:55;;;;;;;17.33;7.35;;;4.20;99.80;;;;;;4995357;28;20305;-83
2021/01/07 13:52:23;;;;;;;10.52;7.03;;;4.00;99.80;;;;;;4982916;28;20229;-83
2021/01/07 13:54:52;;;;;;;17.77;7.40;;;3.90;99.80;;;;;;4980304;28;20314;-83
2021/01/07 13:57:19;;;;;;;14.85;8.07;;;3.90;99.80;;;;;;4985088;28;20244;-85
2021/01/07 13:59:46;;;;;;;17.20;7.10;;;3.80;99.80;;;;;;4980427;28;20761;-84
2021/01/07 14:02:15;;;;;;;15.55;7.80;;;3.80;99.80;;;;;;4994796;28;20650;-86
2021/01/07 14:04:45;;;;;;;15.88;7.38;;;3.70;99.80;;;;;;4991098;28;20247;-90
2021/01/07 14:07:17;;;;;;;18.08;7.82;;;3.80;99.80;;;;;;4980499;28;20258;-86
2021/01/07 14:09:45;;;;;;;12.27;7.60;;;3.80;99.80;;;;;;5006253;28;20311;-87
2021/01/07 14:12:14;;;;;;;13.45;6.55;;;3.70;99.80;;;;;;4977824;28;20233;-87
2021/01/07 14:14:44;;;;;;;15.15;7.43;;;3.70;99.80;;;;;;4974573;28;20223;-88
2021/01/07 14:17:11;;;;;;;15.70;7.65;;;3.70;99.80;;;;;;4984691;28;20220;-88
2021/01/07 14:19:39;;;;;;;18.67;9.35;;;3.70;99.80;;;;;;4990056;28;20226;-87
2021/01/07 14:22:07;;;;;;;15.73;8.05;;;3.60;99.80;;;;;;4988908;28;20226;-86
2021/01/07 14:24:36;;;;;;;15.63;7.90;;;3.50;99.80;;;;;;4990942;28;20227;-86
2021/01/07 14:27:13;;;;;;;12.02;6.88;;;3.30;99.80;;;;;;4966646;28;20314;-86
2021/01/07 14:29:44;;;;;;;16.20;8.57;;;3.30;99.80;;;;;;4979956;28;20746;-85
2021/01/07 14:32:11;;;;;;;14.45;7.90;;;3.30;99.80;;;;;;4992448;28;20233;-87
2021/01/07 14:34:39;;;;;;;16.45;7.15;;;3.20;99.80;;;;;;5003984;28;20749;-88
2021/01/07 14:37:08;;;;;;;19.20;7.97;;;3.30;99.80;;;;;;4996791;28;20228;-87
2021/01/07 14:39:38;;;;;;;15.20;8.00;;;3.30;99.80;;;;;;4985133;28;20309;-86
2021/01/07 14:42:09;;;;;;;14.05;7.18;;;3.30;99.80;;;;;;4979136;28;20296;-88
2021/01/07 14:44:37;;;;;;;14.18;7.90;;;3.40;99.80;;;;;;4980876;28;20250;-87
2021/01/07 14:47:07;;;;;;;15.63;7.22;;;3.40;99.80;;;;;;4972230;28;20281;-87
2021/01/07 14:49:36;;;;;;;15.82;8.30;;;3.40;99.80;;;;;;4965641;28;20220;-85
2021/01/07 14:52:05;;;;;;;15.57;7.28;;;3.30;99.80;;;;;;4996468;28;20311;-86
2021/01/07 14:54:34;;;;;;;17.50;7.28;;;3.30;99.80;;;;;;4990168;28;20731;-86
2021/01/07 14:57:07;;;;;;;17.17;8.38;;;3.30;99.80;;;;;;4982208;28;20739;-86